Time;durP1;ratioP1;P1;durP2;ratioP2;P2;SDS_P1;SDS_P2;PMS_P1;PMS_P2;Temp;Humidity;BMP_temperature;BMP_pressure;BME280_temperature;BME280_humidity;BME280_pressure;Samples;Min_cycle;Max_cycle;Signal;HPM_P1;HPM_P2
2022/08/03 00:13:18;;;;;;;0.70;0.65;;;;;;;;;;21070822;28;20214;-69
2022/08/03 00:23:20;;;;;;;1.42;0.70;;;;;;;;;;21048824;28;20214;-69
2022/08/03 00:33:22;;;;;;;2.95;0.90;;;;;;;;;;21065657;28;20227;-69
2022/08/03 00:43:26;;;;;;;1.30;0.70;;;;;;;;;;21067206;28;20232;-69
2022/08/03 00:53:28;;;;;;;0.93;0.60;;;;;;;;;;21047370;28;20212;-69
2022/08/03 01:03:30;;;;;;;2.60;0.80;;;;;;;;;;21065950;28;20216;-69
2022/08/03 01:13:34;;;;;;;0.95;0.73;;;;;;;;;;21064480;28;20218;-69
2022/08/03 01:23:48;;;;;;;1.60;0.90;;;;;;;;;;21065291;28;20678;-69
2022/08/03 01:33:55;;;;;;;1.10;0.70;;;;;;;;;;21063660;28;20542;-69
2022/08/03 01:43:57;;;;;;;2.22;0.70;;;;;;;;;;21081245;28;20220;-69
2022/08/03 01:54:00;;;;;;;0.60;0.50;;;24.70;95.90;;;;;;21113307;28;20214;-69
2022/08/03 02:04:02;;;;;;;1.38;0.82;;;24.30;99.90;;;;;;21155067;28;20216;-69
2022/08/03 02:14:06;;;;;;;1.30;0.80;;;;;;;;;;21155321;28;20215;-69
2022/08/03 02:24:08;;;;;;;0.80;0.70;;;;;;;;;;21110005;28;20599;-69
2022/08/03 02:34:13;;;;;;;1.25;0.90;;;;;;;;;;21140077;28;20243;-69
2022/08/03 02:44:16;;;;;;;1.55;1.00;;;;;;;;;;21135204;28;20202;-69
2022/08/03 02:54:18;;;;;;;1.60;1.10;;;;;;;;;;21137699;28;20214;-69
2022/08/03 03:04:20;;;;;;;1.85;1.00;;;;;;;;;;21143112;28;20831;-68
2022/08/03 03:14:23;;;;;;;1.27;0.80;;;;;;;;;;21142096;28;20304;-68
2022/08/03 03:24:26;;;;;;;1.58;0.90;;;;;;;;;;21106285;28;20315;-68
2022/08/03 03:34:29;;;;;;;1.40;0.82;;;;;;;;;;21135714;28;20576;-68
2022/08/03 03:44:31;;;;;;;2.22;0.85;;;;;;;;;;21132053;28;20623;-70
2022/08/03 03:54:40;;;;;;;2.17;0.90;;;;;;;;;;21129572;28;20217;-73
2022/08/03 04:15:03;;;;;;;2.80;1.10;;;;;;;;;;21071848;28;20243;-74
2022/08/03 04:25:09;;;;;;;1.38;1.05;;;23.50;99.90;;;;;;21113793;28;20229;-75
2022/08/03 04:35:11;;;;;;;3.97;1.15;;;;;;;;;;21129588;28;20216;-72
2022/08/03 04:45:14;;;;;;;3.03;1.00;;;23.60;99.90;;;;;;21122914;28;20256;-73
2022/08/03 04:55:26;;;;;;;1.88;1.05;;;;;;;;;;21100342;28;20221;-73
2022/08/03 05:05:28;;;;;;;4.43;1.20;;;;;;;;;;21055179;28;20273;-73
2022/08/03 05:15:30;;;;;;;3.92;2.30;;;;;;;;;;21136546;28;20218;-73
2022/08/03 05:25:31;;;;;;;5.35;4.65;;;;;;;;;;21125784;28;20219;-73
2022/08/03 05:35:37;;;;;;;2.40;1.48;;;;;;;;;;21123706;22;20298;-71
2022/08/03 05:45:40;;;;;;;1.65;1.05;;;;;;;;;;20993902;28;20206;-70
2022/08/03 05:55:41;;;;;;;1.83;1.10;;;;;;;;;;20994564;28;20292;-70
2022/08/03 06:05:43;;;;;;;3.35;1.23;;;;;;;;;;20993975;28;20253;-71
2022/08/03 06:15:45;;;;;;;4.00;1.10;;;;;;;;;;20992370;28;20601;-70
2022/08/03 06:25:47;;;;;;;1.48;0.80;;;;;;;;;;20975513;28;20210;-71
2022/08/03 06:35:49;;;;;;;1.30;0.90;;;;;;;;;;20973045;28;20361;-71
2022/08/03 06:45:50;;;;;;;3.50;1.38;;;;;;;;;;20991113;28;20260;-71
2022/08/03 06:55:52;;;;;;;1.13;0.60;;;;;;;;;;20982346;28;20293;-71
2022/08/03 07:05:54;;;;;;;4.05;1.23;;;;;;;;;;20986278;28;20281;-71
2022/08/03 07:15:55;;;;;;;2.42;1.08;;;;;;;;;;21046524;28;20218;-71
2022/08/03 07:25:57;;;;;;;2.00;1.00;;;;;;;;;;21005422;28;20275;-71
2022/08/03 07:35:59;;;;;;;3.90;1.15;;;;;;;;;;20986454;28;20219;-71
2022/08/03 07:46:01;;;;;;;3.55;1.30;;;;;;;;;;20968494;28;20245;-71
2022/08/03 07:56:03;;;;;;;4.55;0.80;;;;;;;;;;20983359;28;20223;-71
2022/08/03 08:06:04;;;;;;;2.00;0.73;;;;;;;;;;20986520;28;20589;-71
2022/08/03 08:16:06;;;;;;;1.50;0.70;;;;;;;;;;20875172;28;20263;-71
2022/08/03 08:26:08;;;;;;;3.33;1.00;;;;;;;;;;20963010;28;20221;-71
2022/08/03 08:36:09;;;;;;;1.73;0.63;;;;;;;;;;20970204;28;20301;-71
2022/08/03 08:46:11;;;;;;;1.17;0.70;;;;;;;;;;20974885;28;20640;-71
2022/08/03 08:56:16;;;;;;;1.35;0.85;;;27.50;87.60;;;;;;20993900;28;20271;-71
2022/08/03 09:06:17;;;;;;;5.55;0.90;;;;;;;;;;21002641;28;20203;-71
2022/08/03 09:16:20;;;;;;;1.67;0.70;;;;;;;;;;20992537;28;20224;-70
2022/08/03 09:26:29;;;;;;;2.08;0.90;;;;;;;;;;20990175;28;20593;-70
2022/08/03 09:36:38;;;;;;;2.17;0.80;;;28.50;74.40;;;;;;20991333;28;20555;-71
2022/08/03 09:46:55;;;;;;;1.20;0.75;;;;;;;;;;20990137;28;20207;-71
2022/08/03 09:56:58;;;;;;;0.80;0.52;;;;;;;;;;20997167;28;20597;-71
2022/08/03 10:07:09;;;;;;;3.92;0.85;;;;;;;;;;20981251;28;20220;-71
2022/08/03 10:17:11;;;;;;;1.15;0.60;;;;;;;;;;20998894;28;20220;-70
2022/08/03 10:27:14;;;;;;;3.90;0.57;;;29.70;75.50;;;;;;20991361;28;20216;-70
2022/08/03 10:37:16;;;;;;;1.10;0.60;;;30.00;82.50;;;;;;20989526;28;20212;-70
2022/08/03 10:47:19;;;;;;;0.77;0.60;;;;;;;;;;20988681;28;20252;-70
2022/08/03 10:57:39;;;;;;;1.05;0.55;;;;;;;;;;20999429;28;20278;-71
2022/08/03 11:07:41;;;;;;;1.25;0.60;;;;;;;;;;20990632;28;20211;-71
2022/08/03 11:18:02;;;;;;;1.17;0.60;;;;;;;;;;20996228;28;20221;-71
2022/08/03 11:28:40;;;;;;;3.13;0.50;;;31.20;78.20;;;;;;20969217;28;20217;-71
2022/08/03 11:39:02;;;;;;;0.50;0.47;;;;;;;;;;20943045;28;20273;-71
2022/08/03 11:49:06;;;;;;;1.45;0.50;;;;;;;;;;21043517;28;20217;-71
2022/08/03 11:59:08;;;;;;;0.63;0.40;;;;;;;;;;20981756;28;20267;-71
2022/08/03 12:09:15;;;;;;;0.57;0.38;;;32.30;67.80;;;;;;20918249;28;20572;-70
2022/08/03 12:19:17;;;;;;;1.67;0.32;;;;;;;;;;20931591;22;20229;-71
2022/08/03 12:29:21;;;;;;;1.80;0.30;;;32.50;70.40;;;;;;20952599;28;20263;-71
2022/08/03 12:39:25;;;;;;;1.35;0.43;;;32.70;72.90;;;;;;20926932;28;20237;-71
2022/08/03 12:49:28;;;;;;;0.57;0.30;;;;;;;;;;20936556;28;20482;-73
2022/08/03 12:59:35;;;;;;;0.70;0.45;;;33.10;63.00;;;;;;20880006;28;20217;-72
2022/08/03 13:09:47;;;;;;;0.50;0.40;;;;;;;;;;20898603;28;20269;-71
2022/08/03 13:19:50;;;;;;;1.10;0.45;;;;;;;;;;20874629;28;20308;-71
2022/08/03 13:29:52;;;;;;;1.17;0.38;;;;;;;;;;20879158;28;20206;-71
2022/08/03 13:39:53;;;;;;;0.50;0.40;;;;;;;;;;20911942;28;20273;-72
2022/08/03 13:49:55;;;;;;;0.75;0.40;;;;;;;;;;20949087;28;20233;-70
2022/08/03 13:59:57;;;;;;;0.93;0.50;;;;;;;;;;20905750;28;20280;-71
2022/08/03 14:10:00;;;;;;;0.45;0.30;;;;;;;;;;20903321;28;20284;-69
2022/08/03 14:20:04;;;;;;;1.00;0.50;;;;;;;;;;20906563;28;20257;-69
2022/08/03 14:30:06;;;;;;;2.47;0.40;;;;;;;;;;20933341;28;20593;-71
2022/08/03 14:40:08;;;;;;;0.40;0.35;;;34.00;62.90;;;;;;20930836;28;20284;-71
2022/08/03 14:50:09;;;;;;;1.83;0.43;;;;;;;;;;20900816;28;20218;-71
2022/08/03 15:00:12;;;;;;;0.57;0.43;;;34.40;61.20;;;;;;20900541;28;20709;-70
2022/08/03 15:10:13;;;;;;;0.65;0.40;;;;;;;;;;20882359;28;20684;-69
2022/08/03 15:20:15;;;;;;;0.60;0.47;;;;;;;;;;20900718;28;20289;-70
2022/08/03 15:30:17;;;;;;;0.55;0.43;;;;;;;;;;20915631;28;20581;-69
2022/08/03 15:40:18;;;;;;;2.30;1.65;;;;;;;;;;20915918;28;20225;-69
2022/08/03 15:50:20;;;;;;;1.13;0.70;;;;;;;;;;20951951;28;20291;-69
2022/08/03 16:00:22;;;;;;;0.45;0.40;;;;;;;;;;20878681;28;20217;-69
2022/08/03 16:10:27;;;;;;;0.60;0.40;;;;;;;;;;20891065;28;20201;-69
2022/08/03 16:20:29;;;;;;;2.90;1.90;;;;;;;;;;20947408;28;20245;-69
2022/08/03 16:30:30;;;;;;;1.83;0.55;;;;;;;;;;20902814;28;20213;-70
2022/08/03 16:40:32;;;;;;;0.30;0.30;;;;;;;;;;20959231;28;20217;-70
2022/08/03 16:50:34;;;;;;;0.52;0.40;;;;;;;;;;20963174;28;20214;-70
2022/08/03 17:00:36;;;;;;;0.50;0.50;;;;;;;;;;20936170;28;20271;-70
2022/08/03 17:10:40;;;;;;;0.57;0.50;;;;;;;;;;20936529;28;20688;-70
2022/08/03 17:20:45;;;;;;;0.50;0.30;;;33.60;67.80;;;;;;20953338;28;20224;-70
2022/08/03 17:41:07;;;;;;;2.20;0.50;;;;;;;;;;20964878;28;20538;-69
2022/08/03 17:51:28;;;;;;;0.73;0.50;;;33.20;63.80;;;;;;20964490;28;20523;-71
2022/08/03 18:12:05;;;;;;;0.90;0.50;;;;;;;;;;20946616;28;20210;-71
2022/08/03 18:22:07;;;;;;;0.40;0.30;;;;;;;;;;20924198;22;20272;-72
2022/08/03 18:32:09;;;;;;;0.80;0.45;;;;;;;;;;20941051;28;20533;-71
2022/08/03 18:42:11;;;;;;;1.15;0.43;;;;;;;;;;20905084;28;20214;-71
2022/08/03 18:52:17;;;;;;;1.42;0.70;;;;;;;;;;20895030;28;20210;-75
2022/08/03 19:02:29;;;;;;;2.13;0.90;;;;;;;;;;20880258;28;20272;-75
2022/08/03 19:12:31;;;;;;;1.55;0.60;;;;;;;;;;20903036;28;20855;-75
2022/08/03 19:22:33;;;;;;;1.08;0.68;;;;;;;;;;20906734;28;20202;-75
2022/08/03 19:32:35;;;;;;;2.30;0.60;;;;;;;;;;20908905;28;20272;-75
2022/08/03 19:42:39;;;;;;;0.82;0.60;;;;;;;;;;20889963;28;20793;-74
2022/08/03 19:52:42;;;;;;;3.13;0.80;;;;;;;;;;20888437;28;20280;-74
2022/08/03 20:02:44;;;;;;;2.35;1.00;;;;;;;;;;20908217;28;20224;-74
2022/08/03 20:12:47;;;;;;;2.20;0.90;;;31.10;76.30;;;;;;20905911;28;20210;-74
2022/08/03 20:22:51;;;;;;;1.48;0.60;;;;;;;;;;20893620;28;20709;-74
2022/08/03 20:32:53;;;;;;;0.77;0.60;;;;;;;;;;20907181;28;20633;-74
2022/08/03 20:42:55;;;;;;;1.73;0.55;;;;;;;;;;20906835;28;20233;-74
2022/08/03 20:52:58;;;;;;;2.20;0.65;;;;;;;;;;20911623;28;20222;-74
2022/08/03 21:02:59;;;;;;;1.85;0.60;;;;;;;;;;20914736;28;20222;-74
2022/08/03 21:13:22;;;;;;;3.20;0.82;;;30.70;83.10;;;;;;20908292;28;20232;-74
2022/08/03 21:23:24;;;;;;;1.05;0.70;;;;;;;;;;20899398;28;20403;-74
2022/08/03 21:33:26;;;;;;;1.27;0.68;;;;;;;;;;20901551;28;20291;-74
2022/08/03 21:43:28;;;;;;;1.60;0.73;;;;;;;;;;20911821;28;20256;-75
2022/08/03 21:53:32;;;;;;;1.30;0.73;;;30.20;82.10;;;;;;20900780;28;20577;-74
2022/08/03 22:03:34;;;;;;;1.30;0.57;;;;;;;;;;20924709;28;20221;-74
2022/08/03 22:13:36;;;;;;;3.90;0.80;;;;;;;;;;20915009;28;20214;-74
2022/08/03 22:23:42;;;;;;;1.73;0.70;;;29.90;78.40;;;;;;20901095;28;20230;-74
2022/08/03 22:33:44;;;;;;;2.10;0.90;;;;;;;;;;20892292;28;20202;-74
2022/08/03 22:43:48;;;;;;;4.63;0.85;;;;;;;;;;20924146;28;20276;-74
2022/08/03 22:53:50;;;;;;;1.20;0.80;;;;;;;;;;20901854;28;20555;-74
2022/08/03 23:03:57;;;;;;;1.10;0.80;;;29.10;89.40;;;;;;20920157;28;20570;-74
2022/08/03 23:14:02;;;;;;;2.45;0.70;;;29.10;85.80;;;;;;20933103;28;20747;-74
2022/08/03 23:24:05;;;;;;;1.15;0.73;;;;;;;;;;20905932;28;20275;-74
2022/08/03 23:44:29;;;;;;;2.20;0.80;;;;;;;;;;20904976;28;20198;-74
2022/08/03 23:54:34;;;;;;;1.40;0.80;;;;;;;;;;20864700;28;20711;-74
